Airfield :
LOGIN :

Register | Disclaimer

   EN    FR    IT 

 










Legend :    VFR   Marginal VFR   IFR   Intensive IFR   Very Intensive IFR
Visi :
Ceiling :
>= 8 km
>= 3000ft
5 to 8 km
1000 to 3000 ft
1500m to 5 km
500 to 1000 ft
800 to 1500m
200 to 500 ft
< 800m
< 200 ft
Symbols :   Thunderstorms  Fog  Heavy snow  Heavy precipitations  Wind > 20 kt
SIGMETs :     Misc.  Thunderstorms  Icing  Turbulence  Mountain Waves  Volcanic Ashes






- Airport Elevation : 1504 ft
- IATA code : PNA


LEPP - Noain Pamplona

CURRENT METAR :
  • 021030Z 31002KT CAVOK 27/11 Q1019

EXPIRED METARs :
  • 021000Z 03003KT CAVOK 27/12 Q1019
  • 020930Z 01001KT CAVOK 25/11 Q1019
  • 020900Z 04003KT 350V150 CAVOK 24/12 Q1019
  • 020830Z 34002KT CAVOK 22/11 Q1020
  • 012130Z 30004KT CAVOK 17/12 Q1020

TAF TAF LEPP
Valid from the 02 at 09:00 until the 03 at 09:00 UTC


020800Z 0209/0309 VRB03KT CAVOK TX35/0215Z TN15/0305Z
TEMPO 0209/0215 16010KT
BECMG 0214/0216 32010KT
PROB40
TEMPO 0215/0217 33015G25KT
PROB30
TEMPO 0303/0307 VRB03KT



MET'MAP, your aeronautical weather chart ! - Copyright ORBIFLY December 2007 - Disclaimer

ORBIFLY MET'MAP TEAM :

Programming & Development : Alexandra Zaïnal
Original concept : Baudouin d'Aumeries
Technical & hardware support : Manuel Goepfert
Assistance : Marc-Olivier Méhu




SOURCES & CREDITS :

   NOAA